Caldwell, ID

10:40 AM MDT on July 06, 2015 (GMT -0600)
Sunny Slope | | Change Station
CLOSE
Current Station
Personal Weather Station
Location: Caldwell, ID
Elevation: 2566 ft
Nearby Weather Stations

Elev 2566 ft 43.61 °N, 116.80 °W | Updated 10 seconds ago

Clear
Clear
81.7 °F
Feels Like 82 °F
N
1.8
Wind Variable Wind from NNW
Gusts 2.5 mph

Today
High -- | Low -- °F
--% Chance of Precip.
Yesterday
High -- | Low -- °F
Precip. -- in
6:12 AM 9:30 PM
Waning Gibbous, 74% visible
Pressure 30.07 in
Visibility 10.0 miles
Clouds Clear
Heat Index 82 °F
Dew Point 58 °F
Humidity 44%
Rainfall 0.00 in
Snow Depth Not available.
UV 4.0 out of 12
Pollen 5.90 out of 12
Air Quality Not available.
Flu Activity Not available.
METAR KEUL 061635Z AUTO 34004KT 10SM CLR 27/11 A3007 RMK AO1

More Conditions Fewer Conditions

Pressure 30.07 in
Visibility 10.0 miles
Clouds Clear
Heat Index 82 °F
Dew Point 58 °F
Humidity 44%
Rainfall 0.00 in
Snow Depth Not available.
UV 4.0 out of 12
Pollen 5.90 out of 12
Air Quality Not available.
Flu Activity Not available.
METAR KEUL 061635Z AUTO 34004KT 10SM CLR 27/11 A3007 RMK AO1

More Conditions Fewer Conditions

10-Day Weather Forecast

×

Almanac

Astronomy

Jul. 06, 2015 Rise Set
Actual Time
Civil Twilight
Nautical Twilight
Astronomical Twilight
Moon
Length of Visible Light
Length of Day
Tomorrow will be .
, % of the Moon is Illuminated

Today's Extremes

State Highs State Lows

Community

WunderPhotos

Upload Photos

1,835,599 photos uploaded!

WunderBlogs® & News

Nearby

Air Quality

  Air Quality AQ Index Pollutant
Not available.

Snow Depth

Station Depth Elevation

Earthquake Activity

City Distance Mag. Time & Date
Minimum magnitude displayed is 2.5.

Coastal Water Temperatures

Place Temperature

Stations

Nearby Weather Stations

Station Location Temp. Windchill Dew Point Humidity Wind Precip. Elev Updated Type